createdAt,value
2018-07-23T00:01:06.422Z,99.90
2018-07-23T00:03:33.115Z,99.90
2018-07-23T00:05:59.080Z,99.90
2018-07-23T00:08:25.036Z,99.90
2018-07-23T00:10:50.984Z,99.90
2018-07-23T00:13:16.911Z,99.90
2018-07-23T00:15:42.859Z,99.90
2018-07-23T00:18:08.807Z,99.90
2018-07-23T00:20:34.764Z,99.90
2018-07-23T00:23:00.701Z,99.90
2018-07-23T00:25:26.663Z,99.90
2018-07-23T00:27:52.634Z,99.90
2018-07-23T00:30:18.570Z,99.90
2018-07-23T00:32:44.526Z,99.90
2018-07-23T00:35:10.456Z,99.90
2018-07-23T00:37:36.401Z,99.90
2018-07-23T00:40:02.333Z,99.90
2018-07-23T00:42:28.273Z,99.90
2018-07-23T00:44:54.207Z,99.90
2018-07-23T00:47:20.900Z,99.90
2018-07-23T00:49:46.832Z,99.90
2018-07-23T00:52:12.762Z,99.90
2018-07-23T00:54:38.718Z,99.90
2018-07-23T00:57:04.639Z,99.90
2018-07-23T00:59:31.357Z,99.90
2018-07-23T01:01:57.288Z,99.90
2018-07-23T01:04:23.269Z,99.90
2018-07-23T01:06:49.247Z,99.90
2018-07-23T01:09:15.931Z,99.90
2018-07-23T01:11:41.860Z,99.90
2018-07-23T01:14:07.796Z,99.90
2018-07-23T01:16:33.742Z,99.90
2018-07-23T01:18:59.658Z,99.90
2018-07-23T01:21:25.615Z,99.90
2018-07-23T01:23:51.557Z,99.90
2018-07-23T01:26:17.495Z,99.90
2018-07-23T01:28:43.439Z,99.90
2018-07-23T01:31:09.402Z,99.90
2018-07-23T01:33:36.102Z,99.90
2018-07-23T01:36:02.078Z,99.90
2018-07-23T01:38:28.010Z,99.90
2018-07-23T01:40:53.936Z,99.90
2018-07-23T01:43:19.894Z,99.90
2018-07-23T01:45:45.833Z,99.90
2018-07-23T01:48:12.529Z,99.90
2018-07-23T01:50:38.771Z,99.90
2018-07-23T01:53:04.734Z,99.90
2018-07-23T01:55:31.396Z,99.90
2018-07-23T01:57:57.320Z,99.90
2018-07-23T02:00:23.270Z,99.90
2018-07-23T02:02:49.219Z,99.90
2018-07-23T02:05:15.173Z,99.90
2018-07-23T02:07:41.106Z,99.90
2018-07-23T02:10:07.048Z,99.90
2018-07-23T02:12:33.007Z,99.90
2018-07-23T02:14:58.957Z,99.90
2018-07-23T02:17:24.906Z,99.90
2018-07-23T02:19:50.849Z,99.90
2018-07-23T02:22:17.552Z,99.90
2018-07-23T02:24:43.475Z,99.90
2018-07-23T02:27:10.157Z,99.90
2018-07-23T02:29:36.091Z,99.90
2018-07-23T02:32:02.047Z,99.90
2018-07-23T02:34:28.709Z,99.90
2018-07-23T02:36:54.637Z,99.90
2018-07-23T02:39:20.577Z,99.90
2018-07-23T02:41:46.504Z,99.90
2018-07-23T02:44:12.465Z,99.90
2018-07-23T02:46:38.375Z,99.90
2018-07-23T02:49:04.328Z,99.90
2018-07-23T02:51:30.261Z,99.90
2018-07-23T02:53:56.201Z,99.90
2018-07-23T02:56:22.140Z,99.90
2018-07-23T02:58:48.130Z,99.90
2018-07-23T03:01:14.066Z,99.90
2018-07-23T03:03:40.002Z,99.90
2018-07-23T03:06:05.958Z,99.90
2018-07-23T03:08:32.645Z,99.90
2018-07-23T03:10:58.625Z,99.90
2018-07-23T03:13:25.308Z,99.90
2018-07-23T03:15:51.262Z,99.90
2018-07-23T03:18:17.222Z,99.90
2018-07-23T03:20:43.874Z,99.90
2018-07-23T03:23:09.819Z,99.90
2018-07-23T03:25:35.737Z,99.90
2018-07-23T03:28:01.693Z,99.90
2018-07-23T03:30:27.625Z,99.90
2018-07-23T03:32:53.583Z,99.90
2018-07-23T03:35:19.525Z,99.90
2018-07-23T03:37:45.472Z,99.90
2018-07-23T03:40:11.420Z,99.90
2018-07-23T03:42:37.373Z,99.90
2018-07-23T03:45:03.322Z,99.90
2018-07-23T03:47:29.247Z,99.90
2018-07-23T03:49:55.188Z,99.90
2018-07-23T03:52:21.119Z,99.90
2018-07-23T03:54:47.083Z,99.90
2018-07-23T03:57:13.024Z,99.90
2018-07-23T03:59:38.967Z,99.90
2018-07-23T04:02:04.910Z,99.90
2018-07-23T04:04:30.836Z,99.90
2018-07-23T04:06:56.827Z,99.90
2018-07-23T04:09:22.780Z,99.90
2018-07-23T04:11:49.473Z,99.90
2018-07-23T04:14:15.443Z,99.90
2018-07-23T04:16:41.405Z,99.90
2018-07-23T04:19:08.116Z,99.90
2018-07-23T04:21:34.795Z,99.90
2018-07-23T04:24:00.787Z,99.90
2018-07-23T04:26:27.490Z,99.90
2018-07-23T04:28:54.201Z,99.90
2018-07-23T04:31:20.152Z,99.90
2018-07-23T04:33:46.101Z,99.90
2018-07-23T04:36:12.772Z,99.90
2018-07-23T04:38:38.766Z,99.90
2018-07-23T04:41:04.738Z,99.90
2018-07-23T04:43:30.703Z,99.90
2018-07-23T04:45:57.384Z,99.90
2018-07-23T04:48:23.327Z,99.90
2018-07-23T04:50:49.285Z,99.90
2018-07-23T04:53:15.956Z,99.90
2018-07-23T04:55:41.905Z,99.90
2018-07-23T04:58:07.869Z,99.90
2018-07-23T05:00:34.586Z,99.90
2018-07-23T05:03:00.523Z,99.90
2018-07-23T05:05:26.485Z,99.90
2018-07-23T05:07:52.427Z,99.90
2018-07-23T05:10:18.413Z,99.90
2018-07-23T05:12:45.092Z,99.90
2018-07-23T05:15:11.071Z,99.90
2018-07-23T05:17:37.759Z,99.90
2018-07-23T05:20:03.697Z,99.90
2018-07-23T05:22:29.695Z,99.90
2018-07-23T05:24:55.637Z,99.90
2018-07-23T05:27:21.584Z,99.90
2018-07-23T05:29:47.516Z,99.90
2018-07-23T05:32:14.233Z,99.90
2018-07-23T05:34:40.182Z,99.90
2018-07-23T05:37:06.855Z,99.90
2018-07-23T05:39:32.803Z,99.90
2018-07-23T05:41:58.732Z,99.90
2018-07-23T05:44:24.695Z,99.90
2018-07-23T05:46:50.638Z,99.90
2018-07-23T05:49:16.607Z,99.90
2018-07-23T05:51:42.527Z,99.90
2018-07-23T05:54:08.479Z,99.90
2018-07-23T05:56:35.197Z,99.90
2018-07-23T05:59:01.918Z,99.90
2018-07-23T06:01:27.853Z,99.90
2018-07-23T06:03:53.806Z,99.90
2018-07-23T06:06:19.747Z,99.90
2018-07-23T06:08:45.673Z,99.90
2018-07-23T06:11:12.371Z,99.90
2018-07-23T06:13:39.051Z,99.90
2018-07-23T06:16:05.012Z,99.90
2018-07-23T06:18:30.952Z,99.90
2018-07-23T06:20:57.663Z,99.90
2018-07-23T06:23:23.626Z,99.90
2018-07-23T06:25:50.345Z,99.90
2018-07-23T06:28:16.305Z,99.90
2018-07-23T06:30:42.976Z,99.90
2018-07-23T06:33:09.017Z,99.90
2018-07-23T06:35:35.084Z,99.90
2018-07-23T06:38:01.031Z,99.90
2018-07-23T06:40:26.981Z,99.90
2018-07-23T06:42:52.928Z,99.90
2018-07-23T06:45:18.890Z,99.90
2018-07-23T06:47:44.861Z,99.90
2018-07-23T06:50:10.780Z,99.90
2018-07-23T06:52:36.719Z,99.10
2018-07-23T06:55:02.674Z,97.40
2018-07-23T06:57:28.703Z,94.90
2018-07-23T06:59:54.595Z,92.70
2018-07-23T07:02:21.273Z,87.90
2018-07-23T07:04:47.219Z,87.80
2018-07-23T07:07:13.177Z,85.50
2018-07-23T07:09:39.883Z,82.80
2018-07-23T07:12:05.819Z,83.30
2018-07-23T07:14:31.754Z,80.80
2018-07-23T07:16:57.729Z,78.10
2018-07-23T07:19:23.686Z,79.70
2018-07-23T07:21:49.664Z,78.20
2018-07-23T07:24:16.351Z,71.00
2018-07-23T07:26:42.314Z,71.00
2018-07-23T07:29:08.990Z,73.80
2018-07-23T07:31:34.970Z,73.80
2018-07-23T07:34:00.906Z,72.30
2018-07-23T07:36:26.840Z,69.10
2018-07-23T07:38:52.785Z,69.20
2018-07-23T07:41:18.725Z,65.10
2018-07-23T07:43:44.673Z,66.00
2018-07-23T07:46:11.353Z,62.70
2018-07-23T07:48:37.315Z,62.70
2018-07-23T07:51:03.265Z,62.80
2018-07-23T07:53:30.010Z,59.30
2018-07-23T07:55:55.959Z,59.30
2018-07-23T07:58:21.895Z,58.80
2018-07-23T08:00:47.859Z,58.40
2018-07-23T08:03:14.529Z,55.90
2018-07-23T08:05:40.480Z,55.90
2018-07-23T08:08:06.414Z,57.50
2018-07-23T08:10:32.378Z,55.70
2018-07-23T08:12:59.040Z,59.70
2018-07-23T08:15:25.000Z,59.50
2018-07-23T08:17:51.065Z,59.20
2018-07-23T08:20:16.966Z,58.00
2018-07-23T08:22:42.931Z,57.70
2018-07-23T08:25:08.899Z,56.20
2018-07-23T08:27:34.842Z,57.00
2018-07-23T08:30:01.528Z,59.60
2018-07-23T08:32:27.544Z,59.60
2018-07-23T08:34:53.468Z,58.20
2018-07-23T08:37:19.422Z,56.40
2018-07-23T08:39:45.377Z,55.60
2018-07-23T08:42:12.038Z,57.70
2018-07-23T08:44:38.001Z,57.60
2018-07-23T08:47:03.949Z,57.60
2018-07-23T08:49:29.903Z,55.30
2018-07-23T08:51:55.853Z,55.00
2018-07-23T08:54:21.808Z,54.70
2018-07-23T08:56:47.742Z,53.00
2018-07-23T08:59:14.433Z,55.60
2018-07-23T09:01:40.381Z,55.50
2018-07-23T09:04:06.326Z,53.30
2018-07-23T09:06:33.031Z,53.30
2018-07-23T09:08:58.970Z,53.20
2018-07-23T09:11:24.935Z,52.80
2018-07-23T09:13:50.870Z,50.60
2018-07-23T09:16:16.798Z,50.70
2018-07-23T09:18:42.768Z,51.10
2018-07-23T09:21:08.706Z,48.60
2018-07-23T09:23:35.408Z,48.30
2018-07-23T09:26:01.333Z,48.40
2018-07-23T09:28:27.283Z,45.90
2018-07-23T09:30:53.963Z,47.00
2018-07-23T09:33:19.941Z,46.90
2018-07-23T09:35:46.654Z,43.80
2018-07-23T09:38:12.593Z,43.80
2018-07-23T09:40:38.563Z,44.90
2018-07-23T09:43:04.523Z,41.70
2018-07-23T09:45:30.482Z,43.90
2018-07-23T09:47:56.418Z,45.10
2018-07-23T09:50:22.375Z,42.70
2018-07-23T09:52:48.348Z,42.60
2018-07-23T09:55:14.281Z,42.50
2018-07-23T09:57:40.209Z,44.20
2018-07-23T10:00:06.891Z,47.30
2018-07-23T10:02:32.838Z,47.40
2018-07-23T10:04:58.767Z,43.90
2018-07-23T10:07:25.476Z,44.40
2018-07-23T10:09:51.426Z,44.30
2018-07-23T10:12:17.371Z,43.90
2018-07-23T10:14:43.311Z,46.50
2018-07-23T10:17:09.241Z,43.00
2018-07-23T10:19:35.174Z,45.40
2018-07-23T10:22:01.156Z,46.30
2018-07-23T10:24:27.837Z,46.60
2018-07-23T10:26:53.763Z,46.80
2018-07-23T10:29:19.717Z,48.30
2018-07-23T10:31:45.653Z,49.10
2018-07-23T10:34:12.349Z,49.40
2018-07-23T10:36:38.306Z,49.40
2018-07-23T10:39:05.011Z,50.00
2018-07-23T10:41:30.931Z,49.30
2018-07-23T10:43:56.879Z,49.60
2018-07-23T10:46:22.795Z,54.40
2018-07-23T10:48:48.801Z,54.30
2018-07-23T10:51:14.739Z,51.70
2018-07-23T10:53:40.680Z,53.00
2018-07-23T10:56:07.409Z,52.50
2018-07-23T10:58:33.334Z,53.00
2018-07-23T11:01:00.049Z,51.70
2018-07-23T11:03:25.995Z,51.60
2018-07-23T11:05:51.937Z,53.30
2018-07-23T11:08:18.629Z,51.00
2018-07-23T11:10:44.606Z,51.10
2018-07-23T11:13:10.556Z,50.40
2018-07-23T11:15:36.513Z,52.20
2018-07-23T11:18:02.482Z,52.80
2018-07-23T11:20:28.407Z,54.60
2018-07-23T11:22:54.385Z,51.90
2018-07-23T11:25:38.979Z,54.10
2018-07-23T11:27:47.040Z,53.80
2018-07-23T11:30:12.989Z,53.90
2018-07-23T11:32:39.720Z,53.60
2018-07-23T11:35:05.650Z,53.40
2018-07-23T11:37:31.617Z,54.90
2018-07-23T11:39:57.564Z,52.60
2018-07-23T11:42:23.506Z,53.70
2018-07-23T11:44:49.467Z,53.10
2018-07-23T11:47:15.437Z,54.30
2018-07-23T11:49:41.406Z,52.50
2018-07-23T11:52:14.355Z,53.30
2018-07-23T11:54:33.333Z,53.30
2018-07-23T11:57:00.101Z,53.50
2018-07-23T11:59:26.777Z,55.00
2018-07-23T12:01:52.738Z,54.90
2018-07-23T12:04:18.707Z,55.40
2018-07-23T12:06:44.635Z,53.90
2018-07-23T12:09:11.318Z,55.50
2018-07-23T12:11:38.027Z,54.80
2018-07-23T12:14:03.957Z,54.80
2018-07-23T12:16:29.909Z,54.30
2018-07-23T12:18:56.606Z,56.70
2018-07-23T12:21:22.551Z,56.50
2018-07-23T12:23:48.494Z,57.30
2018-07-23T12:26:15.176Z,55.80
2018-07-23T12:28:41.133Z,55.70
2018-07-23T12:31:07.071Z,55.10
2018-07-23T12:33:33.041Z,56.30
2018-07-23T12:35:58.977Z,55.50
2018-07-23T12:38:24.961Z,56.20
2018-07-23T12:40:50.900Z,53.80
2018-07-23T12:43:16.847Z,54.40
2018-07-23T12:45:42.771Z,54.80
2018-07-23T12:48:08.742Z,53.10
2018-07-23T12:50:35.398Z,55.80
2018-07-23T12:53:01.320Z,55.90
2018-07-23T12:55:27.263Z,56.70
2018-07-23T12:57:53.211Z,55.50
2018-07-23T13:00:19.186Z,56.30
2018-07-23T13:02:45.121Z,56.10
2018-07-23T13:05:11.080Z,56.20
2018-07-23T13:07:37.004Z,57.20
2018-07-23T13:10:03.111Z,56.10
2018-07-23T13:12:29.086Z,56.30
2018-07-23T13:14:55.813Z,55.60
2018-07-23T13:17:21.706Z,55.60
2018-07-23T13:19:47.639Z,56.40
2018-07-23T13:22:13.575Z,56.00
2018-07-23T13:24:40.253Z,56.00
2018-07-23T13:27:06.198Z,56.00
2018-07-23T13:29:32.125Z,57.90
2018-07-23T13:31:58.100Z,57.10
2018-07-23T13:34:24.035Z,57.70
2018-07-23T13:36:49.968Z,57.00
2018-07-23T13:39:15.958Z,56.20
2018-07-23T13:41:42.641Z,57.40
2018-07-23T13:44:08.607Z,57.30
2018-07-23T13:46:34.548Z,57.90
2018-07-23T13:49:00.493Z,56.70
2018-07-23T13:51:26.455Z,58.20
2018-07-23T13:53:52.401Z,58.50
2018-07-23T13:56:18.328Z,59.60
2018-07-23T13:58:45.021Z,59.10
2018-07-23T14:01:11.007Z,59.20
2018-07-23T14:03:36.924Z,58.80
2018-07-23T14:06:03.619Z,59.40
2018-07-23T14:08:29.557Z,59.40
2018-07-23T14:10:56.333Z,57.40
2018-07-23T14:13:22.505Z,57.30
2018-07-23T14:15:48.631Z,57.90
2018-07-23T14:18:14.569Z,57.60
2018-07-23T14:20:40.523Z,58.40
2018-07-23T14:23:07.236Z,59.30
2018-07-23T14:25:33.206Z,59.20
2018-07-23T14:27:59.175Z,59.40
2018-07-23T14:30:25.109Z,58.70
2018-07-23T14:32:51.074Z,59.20
2018-07-23T14:35:17.009Z,60.60
2018-07-23T14:37:50.087Z,59.70
2018-07-23T14:40:16.037Z,60.40
2018-07-23T14:42:41.986Z,59.60
2018-07-23T14:45:07.948Z,60.80
2018-07-23T14:47:33.919Z,59.70
2018-07-23T14:49:59.877Z,60.70
2018-07-23T14:52:26.553Z,60.60
2018-07-23T14:54:52.517Z,60.50
2018-07-23T14:57:18.459Z,61.20
2018-07-23T14:59:44.435Z,60.90
2018-07-23T15:02:10.434Z,61.50
2018-07-23T15:04:36.902Z,59.90
2018-07-23T15:07:03.635Z,61.80
2018-07-23T15:09:29.574Z,61.70
2018-07-23T15:11:55.558Z,62.00
2018-07-23T15:14:21.526Z,61.00
2018-07-23T15:16:48.241Z,62.00
2018-07-23T15:19:14.176Z,62.70
2018-07-23T15:21:40.153Z,63.10
2018-07-23T15:24:06.089Z,62.50
2018-07-23T15:26:32.048Z,61.10
2018-07-23T15:28:58.008Z,60.70
2018-07-23T15:31:23.950Z,60.80
2018-07-23T15:33:49.904Z,60.90
2018-07-23T15:36:15.842Z,61.50
2018-07-23T15:38:41.893Z,59.90
2018-07-23T15:41:08.672Z,60.30
2018-07-23T15:43:34.643Z,60.30
2018-07-23T15:46:01.409Z,61.80
2018-07-23T15:48:27.261Z,61.70
2018-07-23T15:50:53.220Z,64.40
2018-07-23T15:53:19.916Z,61.50
2018-07-23T15:55:45.887Z,61.50
2018-07-23T15:58:12.565Z,61.70
2018-07-23T16:00:38.521Z,61.60
2018-07-23T16:03:04.493Z,61.90
2018-07-23T16:05:30.467Z,61.50
2018-07-23T16:07:56.410Z,61.00
2018-07-23T16:10:23.110Z,61.00
2018-07-23T16:12:49.077Z,60.90
2018-07-23T16:15:15.776Z,62.10
2018-07-23T16:17:41.766Z,62.00
2018-07-23T16:20:07.746Z,60.60
2018-07-23T16:22:33.691Z,61.40
2018-07-23T16:24:59.605Z,61.00
2018-07-23T16:27:25.730Z,60.80
2018-07-23T16:29:51.772Z,62.20
2018-07-23T16:32:18.446Z,61.00
2018-07-23T16:34:44.388Z,61.00
2018-07-23T16:37:10.319Z,61.30
2018-07-23T16:39:36.274Z,61.00
2018-07-23T16:42:02.961Z,63.40
2018-07-23T16:44:28.931Z,63.40
2018-07-23T16:46:55.635Z,64.80
2018-07-23T16:49:22.340Z,66.00
2018-07-23T16:51:48.266Z,66.90
2018-07-23T16:54:14.246Z,65.10
2018-07-23T16:56:40.181Z,64.50
2018-07-23T16:59:06.855Z,64.30
2018-07-23T17:01:32.820Z,64.30
2018-07-23T17:03:58.755Z,64.70
2018-07-23T17:06:25.475Z,65.30
2018-07-23T17:08:51.418Z,65.30
2018-07-23T17:11:18.103Z,65.70
2018-07-23T17:13:44.055Z,65.70
2018-07-23T17:16:10.057Z,66.90
2018-07-23T17:18:36.070Z,67.60
2018-07-23T17:21:02.113Z,66.70
2018-07-23T17:23:28.091Z,66.30
2018-07-23T17:25:54.769Z,66.60
2018-07-23T17:28:20.724Z,66.50
2018-07-23T17:30:46.686Z,66.10
2018-07-23T17:33:12.648Z,66.70
2018-07-23T17:35:38.682Z,67.30
2018-07-23T17:38:04.597Z,67.00
2018-07-23T17:40:30.523Z,67.30
2018-07-23T17:42:56.476Z,67.90
2018-07-23T17:45:23.187Z,67.60
2018-07-23T17:47:49.124Z,67.60
2018-07-23T17:50:15.866Z,68.10
2018-07-23T17:52:41.874Z,68.10
2018-07-23T17:55:08.664Z,68.80
2018-07-23T17:57:34.550Z,68.80
2018-07-23T18:00:00.516Z,70.00
2018-07-23T18:02:26.451Z,70.50
2018-07-23T18:04:52.376Z,69.50
2018-07-23T18:07:18.344Z,70.50
2018-07-23T18:09:44.267Z,71.40
2018-07-23T18:12:10.252Z,72.20
2018-07-23T18:14:36.187Z,73.60
2018-07-23T18:17:02.155Z,75.50
2018-07-23T18:19:28.822Z,78.60
2018-07-23T18:21:54.784Z,78.60
2018-07-23T18:24:20.722Z,79.60
2018-07-23T18:26:46.686Z,81.20
2018-07-23T18:29:12.661Z,83.10
2018-07-23T18:31:39.360Z,86.00
2018-07-23T18:34:05.312Z,86.00
2018-07-23T18:36:31.231Z,86.80
2018-07-23T18:38:57.220Z,88.00
2018-07-23T18:41:23.171Z,88.80
2018-07-23T18:43:49.117Z,89.50
2018-07-23T18:46:15.076Z,90.40
2018-07-23T18:48:41.000Z,90.40
2018-07-23T18:51:06.954Z,91.10
2018-07-23T18:53:32.877Z,91.20
2018-07-23T18:55:58.807Z,91.50
2018-07-23T18:58:24.736Z,91.90
2018-07-23T19:00:50.680Z,92.30
2018-07-23T19:03:17.373Z,93.10
2018-07-23T19:05:43.338Z,93.00
2018-07-23T19:08:13.047Z,93.50
2018-07-23T19:10:40.317Z,93.80
2018-07-23T19:13:07.138Z,94.40
2018-07-23T19:15:33.057Z,94.40
2018-07-23T19:17:59.755Z,95.30
2018-07-23T19:20:25.894Z,95.30
2018-07-23T19:22:51.717Z,95.40
2018-07-23T19:25:17.674Z,96.00
2018-07-23T19:27:44.376Z,96.70
2018-07-23T19:30:10.314Z,96.70
2018-07-23T19:32:36.287Z,97.40
2018-07-23T19:35:02.273Z,97.70
2018-07-23T19:37:28.988Z,98.50
2018-07-23T19:39:54.933Z,98.50
2018-07-23T19:42:20.998Z,99.30
2018-07-23T19:44:46.912Z,99.40
2018-07-23T19:47:13.597Z,99.90
2018-07-23T19:49:39.550Z,99.90
2018-07-23T19:52:05.472Z,99.90
2018-07-23T19:54:32.164Z,99.90
2018-07-23T19:56:58.078Z,99.90
2018-07-23T19:59:24.063Z,99.90
2018-07-23T20:01:50.055Z,99.90
2018-07-23T20:04:15.987Z,99.90
2018-07-23T20:06:41.978Z,99.90
2018-07-23T20:09:07.963Z,99.90
2018-07-23T20:11:34.704Z,99.90
2018-07-23T20:14:01.363Z,99.90
2018-07-23T20:16:27.335Z,99.90
2018-07-23T20:18:53.302Z,99.90
2018-07-23T20:21:19.253Z,99.90
2018-07-23T20:23:45.241Z,99.90
2018-07-23T20:26:11.922Z,99.90
2018-07-23T20:28:37.887Z,99.90
2018-07-23T20:31:04.556Z,99.90
2018-07-23T20:33:30.552Z,99.90
2018-07-23T20:35:57.306Z,99.90
2018-07-23T20:38:23.572Z,99.90
2018-07-23T20:40:49.516Z,99.90
2018-07-23T20:43:15.456Z,99.90
2018-07-23T20:45:41.466Z,99.90
2018-07-23T20:48:07.395Z,99.90
2018-07-23T20:50:33.373Z,99.90
2018-07-23T20:52:59.393Z,99.90
2018-07-23T20:55:25.367Z,99.90
2018-07-23T20:57:51.324Z,99.90
2018-07-23T21:00:17.283Z,99.90
2018-07-23T21:02:43.268Z,99.90
2018-07-23T21:05:09.375Z,99.90
2018-07-23T21:07:36.073Z,99.90
2018-07-23T21:10:02.002Z,99.90
2018-07-23T21:12:27.984Z,99.90
2018-07-23T21:14:53.940Z,99.90
2018-07-23T21:17:19.944Z,99.90
2018-07-23T21:19:45.975Z,99.90
2018-07-23T21:22:11.897Z,99.90
2018-07-23T21:24:37.944Z,99.90
2018-07-23T21:27:03.912Z,99.90
2018-07-23T21:29:29.894Z,99.90
2018-07-23T21:31:55.889Z,99.90
2018-07-23T21:34:21.861Z,99.90
2018-07-23T21:36:48.605Z,99.90
2018-07-23T21:39:15.327Z,99.90
2018-07-23T21:41:41.296Z,99.90
2018-07-23T21:44:07.242Z,99.90
2018-07-23T21:46:33.219Z,99.90
2018-07-23T21:48:59.914Z,99.90
2018-07-23T21:51:25.859Z,99.90
2018-07-23T21:53:51.848Z,99.90
2018-07-23T21:56:17.857Z,99.90
2018-07-23T21:58:43.813Z,99.90
2018-07-23T22:01:09.770Z,99.90
2018-07-23T22:03:36.437Z,99.90
2018-07-23T22:06:02.384Z,99.90
2018-07-23T22:08:28.319Z,99.90
2018-07-23T22:10:54.301Z,99.90
2018-07-23T22:13:20.275Z,99.90
2018-07-23T22:15:46.235Z,99.90
2018-07-23T22:18:13.167Z,99.90
2018-07-23T22:20:39.858Z,99.90
2018-07-23T22:23:05.877Z,99.90
2018-07-23T22:25:32.603Z,99.90
2018-07-23T22:27:58.514Z,99.90
2018-07-23T22:30:25.207Z,99.90
2018-07-23T22:32:51.163Z,99.90
2018-07-23T22:35:17.827Z,99.90
2018-07-23T22:37:43.756Z,99.90
2018-07-23T22:40:09.701Z,99.90
2018-07-23T22:42:35.855Z,99.90
2018-07-23T22:45:01.980Z,99.90
2018-07-23T22:47:27.901Z,99.90
2018-07-23T22:49:53.854Z,99.90
2018-07-23T22:52:20.540Z,99.90
2018-07-23T22:54:46.492Z,99.90
2018-07-23T22:57:12.436Z,99.90
2018-07-23T22:59:38.401Z,99.90
2018-07-23T23:02:04.354Z,99.90
2018-07-23T23:04:30.310Z,99.90
2018-07-23T23:06:56.985Z,99.90
2018-07-23T23:09:22.962Z,99.90
2018-07-23T23:11:49.636Z,99.90
2018-07-23T23:14:15.625Z,99.90
2018-07-23T23:16:41.658Z,99.90
2018-07-23T23:19:08.327Z,99.90
2018-07-23T23:21:34.395Z,99.90
2018-07-23T23:24:00.319Z,99.90
2018-07-23T23:26:27.018Z,99.90
2018-07-23T23:28:52.945Z,99.90
2018-07-23T23:31:19.086Z,99.90
2018-07-23T23:33:45.011Z,99.90
2018-07-23T23:36:10.928Z,99.90
2018-07-23T23:38:36.891Z,99.90
2018-07-23T23:41:03.570Z,99.90
2018-07-23T23:43:29.531Z,99.90
2018-07-23T23:45:56.219Z,99.90
2018-07-23T23:48:22.239Z,99.90
2018-07-23T23:50:48.214Z,99.90
2018-07-23T23:53:14.276Z,99.90
2018-07-23T23:55:40.224Z,99.90
2018-07-23T23:58:06.212Z,99.90
